Time;durP1;ratioP1;P1;durP2;ratioP2;P2;SDS_P1;SDS_P2;PMS_P1;PMS_P2;Temp;Humidity;BMP_temperature;BMP_pressure;BME280_temperature;BME280_humidity;BME280_pressure;Samples;Min_cycle;Max_cycle;Signal;HPM_P1;HPM_P2
2022/11/18 00:01:08;;;;;;;7.32;3.95;;;7.60;99.90;;;;;;5093330;27;20055;-44
2022/11/18 00:03:35;;;;;;;7.70;3.70;;;7.70;99.90;;;;;;5113271;27;20050;-45
2022/11/18 00:06:01;;;;;;;9.35;3.53;;;7.60;99.90;;;;;;5114224;27;20040;-44
2022/11/18 00:08:27;;;;;;;9.05;4.05;;;7.80;99.90;;;;;;5113491;27;20031;-46
2022/11/18 00:10:52;;;;;;;7.18;3.53;;;7.60;99.90;;;;;;5113294;27;20023;-44
2022/11/18 00:16:04;;;;;;;;;;;7.70;99.90;;;;;;5112243;28;20039;-45
2022/11/18 00:18:30;;;;;;;12.13;4.03;;;7.40;99.90;;;;;;5112760;27;19915;-46
2022/11/18 00:21:01;;;;;;;14.38;4.60;;;7.50;99.90;;;;;;5112952;27;20077;-45
2022/11/18 00:23:27;;;;;;;10.60;4.88;;;7.60;99.90;;;;;;5112928;27;20118;-45
2022/11/18 00:25:52;;;;;;;10.23;5.13;;;7.30;99.90;;;;;;5094763;28;20447;-44
2022/11/18 00:28:18;;;;;;;11.15;5.57;;;7.00;99.90;;;;;;5112988;27;20085;-44
2022/11/18 00:30:43;;;;;;;11.73;5.07;;;7.20;99.90;;;;;;5112369;27;20032;-45
2022/11/18 00:33:09;;;;;;;10.23;5.15;;;7.30;99.90;;;;;;5112638;27;20039;-44
2022/11/18 00:35:35;;;;;;;10.02;4.95;;;7.20;99.90;;;;;;5111677;27;20050;-44
2022/11/18 00:38:00;;;;;;;11.32;5.47;;;7.40;99.90;;;;;;5112022;28;20047;-44
2022/11/18 00:40:26;;;;;;;12.77;5.63;;;7.10;99.90;;;;;;5111271;28;20391;-44
2022/11/18 00:42:52;;;;;;;14.13;5.60;;;7.10;99.90;;;;;;5113138;27;20047;-44
2022/11/18 00:45:19;;;;;;;13.35;5.55;;;7.30;99.90;;;;;;5095963;27;20607;-43
2022/11/18 00:47:45;;;;;;;16.45;5.43;;;7.20;99.90;;;;;;5112739;27;20039;-45
2022/11/18 00:50:11;;;;;;;10.98;5.47;;;7.30;99.90;;;;;;5094668;27;20047;-44
2022/11/18 00:52:37;;;;;;;13.00;6.13;;;7.40;99.90;;;;;;5111562;28;20123;-44
2022/11/18 00:55:03;;;;;;;11.30;5.50;;;7.10;99.90;;;;;;5111719;28;20111;-45
2022/11/18 00:57:29;;;;;;;13.48;5.60;;;7.10;99.90;;;;;;5093870;28;20051;-45
2022/11/18 00:59:54;;;;;;;12.82;5.88;;;7.00;99.90;;;;;;5111901;28;20040;-44
2022/11/18 01:02:20;;;;;;;13.50;5.60;;;7.20;99.90;;;;;;5111902;28;20043;-44
2022/11/18 01:04:45;;;;;;;12.25;5.53;;;7.30;99.90;;;;;;5111710;28;20382;-45
2022/11/18 01:07:11;;;;;;;10.65;5.75;;;7.50;99.90;;;;;;5111550;28;20081;-45
2022/11/18 01:09:37;;;;;;;14.32;6.30;;;7.10;99.90;;;;;;5111549;28;20036;-45
2022/11/18 01:14:47;;;;;;;9.93;5.68;;;7.10;99.90;;;;;;5112416;27;20051;-46
2022/11/18 01:17:13;;;;;;;10.43;6.15;;;7.20;99.90;;;;;;5113274;27;20039;-46
2022/11/18 01:19:39;;;;;;;15.57;6.53;;;7.20;99.90;;;;;;5112395;27;20119;-47
2022/11/18 01:22:05;;;;;;;15.27;6.57;;;7.10;99.90;;;;;;5112373;28;20038;-44
2022/11/18 01:24:33;;;;;;;13.70;6.63;;;7.40;99.90;;;;;;5112983;27;20046;-47
2022/11/18 01:27:00;;;;;;;14.95;6.57;;;7.20;99.90;;;;;;5092621;28;20042;-44
2022/11/18 01:29:26;;;;;;;13.73;6.65;;;7.10;99.90;;;;;;5110844;28;20046;-47
2022/11/18 01:31:51;;;;;;;12.60;6.40;;;7.20;99.90;;;;;;5111565;28;20371;-45
2022/11/18 01:34:17;;;;;;;14.82;6.97;;;7.40;99.90;;;;;;5111644;27;20494;-47
2022/11/18 01:36:43;;;;;;;11.73;7.25;;;7.20;99.90;;;;;;5111407;28;20035;-45
2022/11/18 01:39:08;;;;;;;12.55;6.70;;;7.20;99.90;;;;;;5108550;28;20536;-44
2022/11/18 01:41:34;;;;;;;15.30;6.60;;;7.40;99.90;;;;;;5111213;28;20090;-44
2022/11/18 01:44:01;;;;;;;14.13;6.43;;;6.90;99.90;;;;;;5111354;27;20054;-44
2022/11/18 01:46:29;;;;;;;11.77;6.82;;;7.40;99.90;;;;;;5111556;28;20111;-44
2022/11/18 01:49:01;;;;;;;15.48;7.40;;;7.30;99.90;;;;;;5110690;28;20112;-43
2022/11/18 01:51:35;;;;;;;14.25;6.82;;;7.30;99.90;;;;;;5110370;28;20028;-44
2022/11/18 01:54:08;;;;;;;12.32;6.60;;;7.40;99.90;;;;;;5110706;28;20051;-44
2022/11/18 01:56:45;;;;;;;15.55;6.88;;;7.00;99.90;;;;;;5110486;28;20051;-43
2022/11/18 01:59:16;;;;;;;16.35;7.82;;;7.20;99.90;;;;;;5111896;28;20083;-44
2022/11/18 02:01:42;;;;;;;13.40;6.82;;;7.30;99.90;;;;;;5113215;27;20030;-45
2022/11/18 02:04:10;;;;;;;12.88;7.72;;;6.90;99.90;;;;;;5111990;28;20040;-44
2022/11/18 02:06:36;;;;;;;16.90;7.72;;;7.10;99.90;;;;;;5112875;28;20078;-44
2022/11/18 02:09:02;;;;;;;15.90;7.70;;;6.70;99.90;;;;;;5110307;28;20067;-43
2022/11/18 02:14:13;;;;;;;14.95;8.27;;;7.10;99.90;;;;;;5111936;28;20638;-44
2022/11/18 02:17:17;;;;;;;18.67;7.82;;;7.10;99.90;;;;;;5111206;28;20126;-44
2022/11/18 02:19:48;;;;;;;13.48;8.38;;;7.20;99.90;;;;;;5109700;28;20035;-48
2022/11/18 02:22:52;;;;;;;20.08;8.05;;;7.00;99.90;;;;;;5111159;28;20474;-45
2022/11/18 02:25:39;;;;;;;16.67;8.03;;;7.10;99.90;;;;;;5111409;28;20052;-45
2022/11/18 02:28:34;;;;;;;16.65;9.35;;;6.90;99.90;;;;;;5112001;28;20269;-45
2022/11/18 02:31:26;;;;;;;17.10;8.68;;;7.30;99.90;;;;;;5111633;28;20047;-45
2022/11/18 02:33:58;;;;;;;17.55;9.13;;;7.10;99.90;;;;;;5073668;28;20066;-43
2022/11/18 02:36:52;;;;;;;14.82;8.48;;;7.20;99.90;;;;;;5110656;28;20387;-44
2022/11/18 02:39:28;;;;;;;15.50;8.75;;;7.10;99.90;;;;;;5106133;28;20039;-45
2022/11/18 02:41:57;;;;;;;16.85;9.73;;;6.70;99.90;;;;;;5110214;28;20039;-44
2022/11/18 02:44:25;;;;;;;19.15;9.68;;;6.70;99.90;;;;;;5110141;28;20425;-45
2022/11/18 02:46:55;;;;;;;20.55;10.35;;;7.30;99.90;;;;;;5111603;28;20040;-44
2022/11/18 02:49:27;;;;;;;17.55;10.45;;;6.90;99.90;;;;;;5111003;28;20490;-45
2022/11/18 02:51:55;;;;;;;21.30;10.90;;;6.90;99.90;;;;;;5111349;28;20038;-43
2022/11/18 02:54:23;;;;;;;23.67;11.38;;;6.90;99.90;;;;;;5111745;28;20035;-45
2022/11/18 02:56:51;;;;;;;18.92;11.80;;;6.80;99.90;;;;;;5110408;28;20039;-46
2022/11/18 02:59:18;;;;;;;23.95;12.10;;;7.10;99.90;;;;;;5110196;28;20042;-46
2022/11/18 03:01:44;;;;;;;26.67;14.52;;;7.30;99.90;;;;;;5110091;28;20098;-45
2022/11/18 03:04:11;;;;;;;25.45;15.65;;;7.10;99.90;;;;;;5113728;28;20046;-46
2022/11/18 03:06:44;;;;;;;25.75;17.90;;;7.20;99.90;;;;;;5115068;27;20032;-44
2022/11/18 03:09:27;;;;;;;32.45;19.90;;;7.30;99.90;;;;;;5116389;27;20439;-47
2022/11/18 03:12:04;;;;;;;31.23;19.30;;;6.80;99.90;;;;;;5114800;27;20032;-48
2022/11/18 03:14:36;;;;;;;41.45;20.27;;;6.90;99.90;;;;;;5115622;27;20063;-45
2022/11/18 03:17:10;;;;;;;38.25;21.95;;;7.00;99.90;;;;;;5113754;28;20099;-46
2022/11/18 03:19:35;;;;;;;33.65;21.88;;;7.30;99.90;;;;;;5114166;27;20039;-47
2022/11/18 03:22:15;;;;;;;37.25;21.45;;;6.90;99.90;;;;;;5113850;27;20454;-45
2022/11/18 03:24:49;;;;;;;35.17;21.15;;;7.30;99.90;;;;;;5114002;28;20036;-44
2022/11/18 03:27:22;;;;;;;39.65;24.80;;;7.00;99.90;;;;;;5113926;27;20194;-46
2022/11/18 03:30:12;;;;;;;44.33;23.85;;;6.90;99.90;;;;;;5113804;27;20088;-46
2022/11/18 03:32:42;;;;;;;41.00;22.73;;;7.00;99.90;;;;;;5112702;28;20075;-44
2022/11/18 03:35:17;;;;;;;45.10;25.80;;;7.10;99.90;;;;;;5116131;27;20467;-47
2022/11/18 03:37:44;;;;;;;44.47;25.85;;;7.00;99.90;;;;;;5114507;27;20038;-45
2022/11/18 03:40:27;;;;;;;46.17;25.35;;;7.50;99.90;;;;;;5115545;27;20044;-44
2022/11/18 03:42:58;;;;;;;47.38;27.33;;;7.50;99.90;;;;;;5114297;27;20498;-45
2022/11/18 03:45:36;;;;;;;50.53;27.30;;;7.40;99.90;;;;;;5115456;27;20062;-45
2022/11/18 03:48:33;;;;;;;50.20;28.42;;;7.10;99.90;;;;;;5113976;27;20050;-44
2022/11/18 03:51:04;;;;;;;54.38;29.05;;;7.40;99.90;;;;;;5096450;27;20055;-46
2022/11/18 03:53:33;;;;;;;48.85;27.73;;;7.60;99.90;;;;;;5114701;27;20045;-45
2022/11/18 03:56:09;;;;;;;51.78;29.88;;;7.60;99.90;;;;;;5113923;27;20044;-45
2022/11/18 03:58:41;;;;;;;56.22;29.40;;;7.70;99.90;;;;;;5113908;27;20047;-47
2022/11/18 04:01:36;;;;;;;57.45;30.90;;;7.50;99.90;;;;;;5114474;27;20496;-45
2022/11/18 04:04:02;;;;;;;60.70;29.98;;;7.50;99.90;;;;;;5113870;27;20039;-45
2022/11/18 04:06:57;;;;;;;52.92;29.23;;;7.60;99.90;;;;;;5113361;27;20067;-46
2022/11/18 04:09:29;;;;;;;58.58;29.92;;;7.80;99.90;;;;;;5112848;27;20052;-45
2022/11/18 04:12:03;;;;;;;58.40;29.25;;;7.40;99.90;;;;;;5113106;27;20532;-44
2022/11/18 04:14:32;;;;;;;54.75;28.25;;;7.90;99.90;;;;;;5111587;27;20047;-45
2022/11/18 04:16:57;;;;;;;54.00;30.00;;;7.40;99.90;;;;;;5112612;27;20044;-43
2022/11/18 04:19:23;;;;;;;52.00;30.52;;;7.60;99.90;;;;;;5112384;27;20043;-44
2022/11/18 04:21:49;;;;;;;53.40;30.00;;;7.80;99.90;;;;;;5112575;27;20080;-46
2022/11/18 04:24:15;;;;;;;55.70;29.27;;;7.80;99.90;;;;;;5112434;27;20122;-48
2022/11/18 04:26:41;;;;;;;53.20;30.40;;;7.30;99.90;;;;;;5112374;27;20031;-48
2022/11/18 04:29:06;;;;;;;55.00;30.30;;;7.70;99.90;;;;;;5112220;28;20066;-46
2022/11/18 04:31:32;;;;;;;52.03;30.10;;;7.50;99.90;;;;;;5113932;27;20027;-46
2022/11/18 04:33:58;;;;;;;54.15;30.20;;;7.80;99.90;;;;;;5113601;27;20466;-45
2022/11/18 04:36:23;;;;;;;54.53;28.20;;;7.30;99.90;;;;;;5114576;27;20602;-43
2022/11/18 04:38:49;;;;;;;55.95;29.40;;;7.80;99.90;;;;;;5113113;27;20043;-44
2022/11/18 04:41:15;;;;;;;55.22;30.08;;;7.90;99.90;;;;;;5113015;27;20092;-44
2022/11/18 04:43:41;;;;;;;56.05;30.75;;;7.20;99.90;;;;;;5113905;27;20065;-44
2022/11/18 04:46:07;;;;;;;58.17;31.55;;;7.70;99.90;;;;;;5094518;28;20157;-44
2022/11/18 04:48:32;;;;;;;56.88;32.00;;;7.30;99.90;;;;;;5113773;27;20595;-43
2022/11/18 04:51:05;;;;;;;56.45;30.58;;;7.50;99.90;;;;;;5112286;27;20064;-43
2022/11/18 04:53:31;;;;;;;59.53;31.85;;;7.80;99.90;;;;;;5112812;27;20044;-46
2022/11/18 04:56:04;;;;;;;53.88;27.67;;;7.40;99.90;;;;;;5112592;27;20394;-46
2022/11/18 04:58:29;;;;;;;55.95;30.00;;;7.30;99.90;;;;;;5112614;27;20035;-45
2022/11/18 05:00:55;;;;;;;53.90;29.08;;;7.40;99.90;;;;;;5112753;27;20035;-43
2022/11/18 05:03:21;;;;;;;58.25;31.95;;;7.30;99.90;;;;;;5112113;28;20039;-44
2022/11/18 05:05:46;;;;;;;60.92;31.17;;;7.20;99.90;;;;;;5112384;28;20055;-46
2022/11/18 05:08:12;;;;;;;54.97;29.45;;;7.30;99.90;;;;;;5093682;28;20054;-44
2022/11/18 05:10:38;;;;;;;56.28;28.23;;;8.10;99.90;;;;;;5111993;28;20470;-46
2022/11/18 05:13:03;;;;;;;62.38;31.75;;;7.30;99.90;;;;;;5112081;27;20053;-45
2022/11/18 05:15:29;;;;;;;57.58;30.02;;;7.70;99.90;;;;;;5079546;28;20492;-49
2022/11/18 05:17:55;;;;;;;59.92;30.63;;;7.80;99.90;;;;;;5111552;27;20031;-44
2022/11/18 05:20:20;;;;;;;57.13;31.60;;;7.70;99.90;;;;;;5110648;28;20043;-46
2022/11/18 05:22:46;;;;;;;56.17;31.25;;;7.90;99.90;;;;;;5112159;27;20047;-46
2022/11/18 05:25:12;;;;;;;60.85;31.25;;;7.60;99.90;;;;;;5112310;27;20399;-46
2022/11/18 05:27:37;;;;;;;59.90;31.83;;;7.20;99.90;;;;;;5112502;27;20118;-45
2022/11/18 05:30:04;;;;;;;55.63;31.52;;;7.30;99.90;;;;;;5111074;28;20031;-46
2022/11/18 05:32:29;;;;;;;60.70;30.48;;;7.40;99.90;;;;;;5111041;28;20294;-46
2022/11/18 05:34:55;;;;;;;59.08;30.95;;;7.70;99.90;;;;;;5109764;27;20471;-45
2022/11/18 05:37:21;;;;;;;57.42;29.50;;;7.60;99.90;;;;;;5111989;27;20406;-47
2022/11/18 05:39:46;;;;;;;55.08;30.00;;;7.70;99.90;;;;;;5094149;27;20466;-44
2022/11/18 05:44:56;;;;;;;58.95;29.90;;;7.40;99.90;;;;;;5111978;28;20126;-46
2022/11/18 05:47:23;;;;;;;56.83;29.48;;;7.90;99.90;;;;;;5110835;28;20467;-46
2022/11/18 05:49:49;;;;;;;59.28;30.90;;;7.70;99.90;;;;;;5110959;28;20027;-44
2022/11/18 05:52:15;;;;;;;55.05;28.15;;;7.60;99.90;;;;;;5111270;27;20039;-44
2022/11/18 05:54:49;;;;;;;59.78;30.63;;;7.40;99.90;;;;;;5111069;27;20039;-44
2022/11/18 05:57:15;;;;;;;;;;;7.70;99.90;;;;;;5111214;28;20043;-44
2022/11/18 05:59:40;;;;;;;59.05;27.27;;;8.00;99.90;;;;;;5110589;28;19980;-43
2022/11/18 06:02:13;;;;;;;51.03;27.25;;;7.80;99.90;;;;;;5110631;28;20027;-45
2022/11/18 06:04:47;;;;;;;54.20;29.15;;;7.30;99.90;;;;;;5110783;28;20047;-45
2022/11/18 06:07:25;;;;;;;;;;;7.60;99.90;;;;;;5111952;28;20039;-44
2022/11/18 06:09:56;;;;;;;57.65;27.70;;;7.80;99.90;;;;;;5111747;28;19915;-43
2022/11/18 06:12:28;;;;;;;55.47;29.50;;;7.20;99.90;;;;;;5094361;28;20383;-44
2022/11/18 06:14:58;;;;;;;54.60;28.25;;;7.60;99.90;;;;;;5111344;28;20087;-43
2022/11/18 06:17:34;;;;;;;60.05;30.50;;;7.40;99.90;;;;;;5111992;28;20047;-43
2022/11/18 06:20:01;;;;;;;60.03;30.05;;;7.40;99.90;;;;;;5110937;28;20197;-44
2022/11/18 06:22:27;;;;;;;55.90;29.42;;;7.90;99.90;;;;;;5093265;28;20254;-44
2022/11/18 06:24:53;;;;;;;55.85;29.42;;;7.40;99.90;;;;;;5110709;28;20067;-43
2022/11/18 06:27:19;;;;;;;58.72;32.67;;;7.80;99.90;;;;;;5111007;28;20067;-44
2022/11/18 06:29:44;;;;;;;57.60;31.70;;;7.70;99.90;;;;;;5111239;28;20036;-44
2022/11/18 06:32:10;;;;;;;55.17;30.48;;;7.50;99.90;;;;;;5110797;28;20039;-44
2022/11/18 06:34:36;;;;;;;61.80;31.27;;;7.90;99.90;;;;;;5111156;28;20036;-44
2022/11/18 06:37:19;;;;;;;57.25;29.60;;;7.70;99.90;;;;;;5109358;28;20095;-45
2022/11/18 06:39:45;;;;;;;59.92;31.88;;;7.60;99.90;;;;;;5115478;27;20039;-44
2022/11/18 06:43:37;;;;;;;60.30;30.75;;;8.00;99.90;;;;;;5096356;28;20039;-43
2022/11/18 06:44:57;;;;;;;55.60;29.20;;;7.40;99.90;;;;;;5114845;27;20096;-44
2022/11/18 06:47:22;;;;;;;58.40;30.08;;;7.70;99.90;;;;;;5114707;27;20035;-44
2022/11/18 06:49:48;;;;;;;58.40;30.65;;;7.60;99.90;;;;;;5113780;28;20046;-43
2022/11/18 06:52:13;;;;;;;57.97;31.30;;;7.60;99.90;;;;;;5113843;28;20146;-43
2022/11/18 06:54:39;;;;;;;57.40;30.60;;;7.40;99.90;;;;;;5114372;27;20068;-46
2022/11/18 06:57:05;;;;;;;57.50;29.23;;;7.90;99.90;;;;;;5114371;27;20047;-44
2022/11/18 06:59:31;;;;;;;54.95;31.90;;;8.00;99.90;;;;;;5114301;28;20123;-44
2022/11/18 07:01:57;;;;;;;53.83;27.77;;;7.70;99.90;;;;;;5113793;28;20162;-43
2022/11/18 07:04:22;;;;;;;54.17;29.33;;;7.90;99.90;;;;;;5113928;28;20128;-44
2022/11/18 07:06:48;;;;;;;58.70;32.50;;;7.60;99.90;;;;;;5113680;27;20481;-47
2022/11/18 07:09:14;;;;;;;56.63;30.08;;;8.00;99.90;;;;;;5113879;27;20040;-44
2022/11/18 07:11:40;;;;;;;63.50;32.58;;;7.80;99.90;;;;;;5095233;28;20130;-46
2022/11/18 07:14:07;;;;;;;57.90;29.17;;;7.90;99.90;;;;;;5114045;27;20047;-46
2022/11/18 07:16:35;;;;;;;52.45;28.52;;;7.90;99.90;;;;;;5113269;27;20098;-46
2022/11/18 07:19:01;;;;;;;52.30;29.20;;;7.50;99.90;;;;;;5113978;27;20047;-44
2022/11/18 07:21:28;;;;;;;55.17;29.42;;;8.00;99.90;;;;;;5113698;28;20032;-44
2022/11/18 07:23:55;;;;;;;54.53;28.63;;;7.40;99.90;;;;;;5113134;28;20084;-44
2022/11/18 07:26:21;;;;;;;56.95;29.73;;;7.50;99.90;;;;;;5113544;28;20052;-46
2022/11/18 07:28:47;;;;;;;49.42;28.83;;;7.90;99.90;;;;;;5114079;27;20035;-43
2022/11/18 07:31:15;;;;;;;57.10;29.15;;;7.90;99.90;;;;;;5115334;27;20167;-46
2022/11/18 07:33:42;;;;;;;54.63;30.48;;;7.40;99.90;;;;;;5114271;27;20055;-46
2022/11/18 07:36:13;;;;;;;53.42;28.52;;;7.50;99.90;;;;;;5114217;27;20478;-44
2022/11/18 07:38:39;;;;;;;55.80;30.25;;;7.80;99.90;;;;;;5112475;27;20043;-45
2022/11/18 07:41:10;;;;;;;51.28;27.17;;;7.40;99.90;;;;;;5113757;27;20066;-43
2022/11/18 07:43:36;;;;;;;50.70;27.80;;;7.70;99.90;;;;;;5114104;27;20081;-44
2022/11/18 07:46:14;;;;;;;59.15;29.85;;;8.00;99.90;;;;;;5113727;27;20035;-45
2022/11/18 07:48:41;;;;;;;49.85;28.05;;;7.80;99.90;;;;;;5095228;28;20235;-44
2022/11/18 07:51:07;;;;;;;54.97;29.90;;;7.40;99.90;;;;;;5113124;28;20067;-44
2022/11/18 07:53:33;;;;;;;59.58;30.88;;;8.00;99.90;;;;;;5113407;28;20491;-44
2022/11/18 07:55:59;;;;;;;55.33;28.65;;;8.10;99.90;;;;;;5094827;28;20123;-43
2022/11/18 07:58:25;;;;;;;55.38;29.15;;;7.60;99.90;;;;;;5112817;28;20134;-45
2022/11/18 08:00:51;;;;;;;54.15;29.10;;;8.00;99.90;;;;;;5114058;27;20042;-44
2022/11/18 08:03:17;;;;;;;55.65;29.55;;;7.70;99.90;;;;;;5106090;28;20044;-45
2022/11/18 08:05:42;;;;;;;55.10;30.15;;;7.70;99.90;;;;;;5114389;27;20043;-45
2022/11/18 08:08:09;;;;;;;53.05;27.80;;;7.90;99.90;;;;;;5114106;27;20059;-45
2022/11/18 08:10:36;;;;;;;51.30;28.75;;;7.90;99.90;;;;;;5114907;27;20031;-43
2022/11/18 08:13:01;;;;;;;49.90;28.05;;;7.50;99.90;;;;;;5079103;28;20123;-44
2022/11/18 08:15:27;;;;;;;49.15;28.17;;;7.50;99.90;;;;;;5095003;27;20462;-46
2022/11/18 08:17:53;;;;;;;48.20;25.05;;;7.80;99.90;;;;;;5075163;28;20747;-44
2022/11/18 08:20:18;;;;;;;45.50;25.13;;;7.80;99.90;;;;;;5094906;28;20413;-45
2022/11/18 08:22:44;;;;;;;45.85;25.80;;;7.90;99.90;;;;;;5094546;27;20086;-44
2022/11/18 08:25:10;;;;;;;43.28;25.35;;;8.00;99.90;;;;;;5093455;27;20032;-46
2022/11/18 08:27:35;;;;;;;44.08;24.67;;;7.20;99.90;;;;;;5075304;28;20035;-43
2022/11/18 08:30:01;;;;;;;41.95;25.23;;;7.60;99.90;;;;;;5094792;28;22907;-44
2022/11/18 08:32:27;;;;;;;45.40;25.48;;;7.70;99.90;;;;;;5073637;28;20083;-45
2022/11/18 08:34:52;;;;;;;39.55;23.25;;;7.90;99.90;;;;;;5093230;27;20030;-47
2022/11/18 08:37:18;;;;;;;38.38;21.33;;;7.70;99.90;;;;;;5093694;28;20041;-44
2022/11/18 08:39:44;;;;;;;39.92;23.17;;;7.50;99.90;;;;;;5089076;28;20047;-45
2022/11/18 08:42:09;;;;;;;36.60;21.20;;;8.00;99.90;;;;;;5091870;28;20039;-47
2022/11/18 08:44:35;;;;;;;43.20;23.48;;;7.90;99.90;;;;;;5092662;28;20340;-44
2022/11/18 08:47:01;;;;;;;36.45;21.48;;;7.90;99.90;;;;;;5091459;28;20508;-45
2022/11/18 08:49:27;;;;;;;36.08;21.77;;;7.60;99.90;;;;;;5090862;28;20478;-44
2022/11/18 08:51:53;;;;;;;34.97;20.30;;;7.40;99.90;;;;;;5092489;28;20028;-43
2022/11/18 08:54:19;;;;;;;35.78;21.02;;;7.50;99.90;;;;;;5091032;28;20043;-44
2022/11/18 08:56:45;;;;;;;34.90;20.80;;;7.40;99.90;;;;;;5091128;28;23256;-44
2022/11/18 08:59:11;;;;;;;37.45;20.50;;;7.90;99.90;;;;;;5093322;28;20036;-44
2022/11/18 09:01:37;;;;;;;38.10;20.48;;;7.50;99.90;;;;;;5091286;28;20046;-44
2022/11/18 09:04:03;;;;;;;36.65;21.23;;;8.00;99.90;;;;;;5095158;28;20069;-45
2022/11/18 09:06:29;;;;;;;38.42;22.27;;;8.00;99.90;;;;;;5093813;28;20120;-43
2022/11/18 09:08:55;;;;;;;36.55;19.95;;;8.00;99.90;;;;;;5063313;28;20040;-45
2022/11/18 09:11:25;;;;;;;36.80;20.02;;;7.90;99.90;;;;;;5098773;28;20031;-44
2022/11/18 09:13:53;;;;;;;36.33;20.65;;;7.40;99.90;;;;;;5096119;28;20035;-45
2022/11/18 09:16:21;;;;;;;37.45;21.90;;;7.90;99.90;;;;;;5097120;28;20098;-46
2022/11/18 09:18:48;;;;;;;36.80;21.05;;;7.70;99.90;;;;;;5092980;28;20036;-42
2022/11/18 09:21:14;;;;;;;35.25;21.27;;;7.70;99.90;;;;;;5072125;28;20036;-44
2022/11/18 09:23:39;;;;;;;38.47;20.33;;;7.50;99.90;;;;;;5089271;28;20577;-44
2022/11/18 09:26:11;;;;;;;34.25;20.23;;;7.50;99.90;;;;;;5092475;28;20054;-44
2022/11/18 09:28:37;;;;;;;35.10;19.00;;;7.90;99.90;;;;;;5090849;28;20083;-44
2022/11/18 09:31:10;;;;;;;34.85;19.77;;;7.90;99.90;;;;;;5070017;28;20059;-46
2022/11/18 09:33:37;;;;;;;35.95;19.00;;;7.80;99.90;;;;;;5072028;28;20112;-43
2022/11/18 09:36:05;;;;;;;34.60;20.42;;;7.50;99.90;;;;;;5089843;28;20044;-44
2022/11/18 09:38:31;;;;;;;32.45;18.95;;;7.60;99.90;;;;;;5074650;28;20356;-46
2022/11/18 09:41:16;;;;;;;35.30;19.85;;;7.60;99.90;;;;;;5093618;28;20048;-48
2022/11/18 09:43:42;;;;;;;36.92;19.60;;;8.10;99.90;;;;;;5091454;28;20058;-45
2022/11/18 09:46:21;;;;;;;32.33;20.02;;;7.70;99.90;;;;;;5089210;28;20119;-45
2022/11/18 09:51:56;;;;;;;32.53;19.33;;;7.90;99.90;;;;;;5089741;28;20402;-46
2022/11/18 09:54:24;;;;;;;31.70;17.20;;;7.80;99.90;;;;;;5074489;28;20051;-45
2022/11/18 09:56:51;;;;;;;32.00;19.02;;;8.30;99.90;;;;;;5093303;28;20047;-45
2022/11/18 09:59:20;;;;;;;30.48;19.15;;;7.70;99.90;;;;;;5077755;28;20725;-46
2022/11/18 10:01:47;;;;;;;32.53;18.60;;;7.80;99.90;;;;;;5088403;28;20031;-44
2022/11/18 10:04:18;;;;;;;31.65;19.27;;;8.20;99.90;;;;;;5092203;28;20569;-45
2022/11/18 10:06:45;;;;;;;31.98;19.08;;;8.20;99.90;;;;;;5091312;28;20067;-45
2022/11/18 10:09:31;;;;;;;38.22;19.55;;;8.00;99.90;;;;;;5089587;28;20391;-45
2022/11/18 10:12:14;;;;;;;30.10;17.80;;;8.30;99.90;;;;;;5089784;28;20474;-45
2022/11/18 10:15:11;;;;;;;31.77;17.92;;;8.10;99.90;;;;;;5090965;28;20031;-44
2022/11/18 10:17:50;;;;;;;27.02;15.35;;;7.70;99.90;;;;;;5088670;28;20067;-45
2022/11/18 10:20:34;;;;;;;27.38;16.25;;;7.80;99.90;;;;;;5088097;28;20133;-44
2022/11/18 10:23:34;;;;;;;32.20;16.80;;;7.90;99.90;;;;;;5069705;28;20048;-47
2022/11/18 10:26:00;;;;;;;26.05;15.45;;;8.30;99.90;;;;;;5091529;28;20050;-46
2022/11/18 10:28:30;;;;;;;32.30;17.58;;;8.00;99.90;;;;;;5091076;28;20036;-46
2022/11/18 10:31:07;;;;;;;29.60;16.98;;;8.10;99.90;;;;;;5091579;28;20403;-45
2022/11/18 10:33:34;;;;;;;29.90;17.08;;;7.90;99.90;;;;;;5086242;28;20050;-45
2022/11/18 10:36:09;;;;;;;28.35;16.95;;;7.70;99.90;;;;;;5090893;28;20047;-45
2022/11/18 10:38:35;;;;;;;32.13;18.55;;;7.90;99.90;;;;;;5090102;28;20568;-46
2022/11/18 10:41:08;;;;;;;35.58;19.05;;;8.10;99.90;;;;;;5074888;28;20113;-46
2022/11/18 10:43:47;;;;;;;29.88;18.75;;;7.70;99.90;;;;;;5087646;28;20522;-46
2022/11/18 10:46:29;;;;;;;32.30;18.92;;;8.20;99.90;;;;;;5091816;28;20035;-44
2022/11/18 10:49:07;;;;;;;30.35;18.55;;;8.20;99.90;;;;;;5088897;28;20115;-47
2022/11/18 10:51:34;;;;;;;34.22;19.90;;;8.40;99.90;;;;;;5087272;28;20120;-44
2022/11/18 10:54:08;;;;;;;31.58;18.83;;;7.60;99.90;;;;;;5090524;28;20040;-45
2022/11/18 10:57:03;;;;;;;30.08;18.15;;;8.10;99.90;;;;;;5098721;28;20115;-44
2022/11/18 10:59:47;;;;;;;31.23;16.77;;;8.10;99.90;;;;;;5077786;28;20062;-44
2022/11/18 11:02:29;;;;;;;31.98;18.70;;;7.90;99.90;;;;;;5097273;28;20046;-44
2022/11/18 11:04:57;;;;;;;31.75;18.88;;;8.30;99.90;;;;;;5096195;28;20101;-45
2022/11/18 11:07:32;;;;;;;30.85;18.85;;;7.70;99.90;;;;;;5077927;28;20115;-44
2022/11/18 11:10:13;;;;;;;32.25;19.33;;;7.80;99.90;;;;;;5098995;28;20110;-44
2022/11/18 11:12:46;;;;;;;35.92;19.23;;;8.00;99.90;;;;;;5079648;28;20081;-43
2022/11/18 11:15:31;;;;;;;34.85;19.73;;;8.10;99.90;;;;;;5079097;28;20471;-45
2022/11/18 11:20:46;;;;;;;32.13;18.10;;;7.90;99.90;;;;;;5100111;28;20491;-45
2022/11/18 11:23:14;;;;;;;35.05;20.98;;;8.10;99.90;;;;;;5099048;28;20048;-47
2022/11/18 11:26:02;;;;;;;37.03;20.13;;;8.30;99.90;;;;;;5103711;28;20254;-46
2022/11/18 11:28:33;;;;;;;34.85;18.80;;;8.10;99.90;;;;;;5085187;28;20042;-45
2022/11/18 11:31:20;;;;;;;37.92;20.92;;;8.30;99.90;;;;;;5084657;28;20039;-44
2022/11/18 11:34:08;;;;;;;33.33;19.33;;;8.40;99.90;;;;;;5102273;28;20035;-44
2022/11/18 11:37:03;;;;;;;35.03;18.90;;;8.30;99.90;;;;;;5102811;27;20525;-44
2022/11/18 11:39:50;;;;;;;29.52;17.55;;;8.00;99.90;;;;;;5103432;27;20092;-48
2022/11/18 11:42:39;;;;;;;29.83;17.58;;;7.90;99.90;;;;;;5102700;27;20031;-44
2022/11/18 11:45:26;;;;;;;29.90;17.50;;;8.30;99.90;;;;;;5102443;28;20104;-44
2022/11/18 11:48:11;;;;;;;27.55;15.45;;;8.00;99.90;;;;;;5102062;28;20031;-43
2022/11/18 11:50:57;;;;;;;25.08;16.17;;;8.10;99.90;;;;;;5102082;27;20092;-44
2022/11/18 11:53:48;;;;;;;25.42;15.77;;;8.30;99.90;;;;;;5100908;27;20043;-45
2022/11/18 11:56:26;;;;;;;25.33;15.20;;;8.30;99.90;;;;;;5102575;28;20082;-46
2022/11/18 11:59:22;;;;;;;26.08;15.02;;;7.90;99.90;;;;;;5100000;27;20035;-46
2022/11/18 12:02:32;;;;;;;23.45;15.48;;;8.10;99.90;;;;;;5094380;28;20069;-44
2022/11/18 12:05:21;;;;;;;22.73;14.48;;;8.00;99.90;;;;;;4980339;28;20046;-46
2022/11/18 12:07:57;;;;;;;25.30;15.13;;;8.10;99.90;;;;;;4979489;28;20034;-45
2022/11/18 12:10:42;;;;;;;25.05;14.82;;;7.80;99.90;;;;;;5051148;28;20461;-44
2022/11/18 12:13:40;;;;;;;23.83;15.07;;;7.80;99.90;;;;;;5096575;28;20039;-44
2022/11/18 12:16:20;;;;;;;24.55;14.52;;;7.80;99.90;;;;;;5078733;28;20048;-44
2022/11/18 12:18:58;;;;;;;24.08;15.45;;;8.00;99.90;;;;;;5096368;28;20035;-44
2022/11/18 12:21:45;;;;;;;23.55;14.90;;;7.70;99.90;;;;;;5093414;28;20077;-45
2022/11/18 12:24:17;;;;;;;28.45;15.95;;;7.90;99.90;;;;;;5096284;28;20046;-44
2022/11/18 12:26:45;;;;;;;26.65;17.52;;;7.90;99.90;;;;;;5096816;28;20110;-45
2022/11/18 12:29:19;;;;;;;31.85;18.40;;;7.90;99.90;;;;;;5096936;28;20174;-45
2022/11/18 12:31:57;;;;;;;28.08;18.60;;;7.60;99.90;;;;;;5095185;28;21436;-44
2022/11/18 12:34:42;;;;;;;27.95;18.13;;;7.80;99.90;;;;;;5099702;28;20466;-44
2022/11/18 12:37:23;;;;;;;29.30;18.15;;;7.90;99.90;;;;;;5099551;28;20038;-44
2022/11/18 12:39:57;;;;;;;29.52;18.20;;;7.60;99.90;;;;;;5102316;28;20130;-44
2022/11/18 12:45:39;;;;;;;23.92;14.48;;;7.60;99.90;;;;;;5083802;28;20058;-44
2022/11/18 12:48:40;;;;;;;27.20;15.88;;;7.60;99.90;;;;;;5102721;28;20110;-47
2022/11/18 12:51:15;;;;;;;25.13;16.17;;;7.60;99.90;;;;;;5103109;27;20043;-44
2022/11/18 12:53:46;;;;;;;25.63;15.68;;;7.70;99.90;;;;;;5102918;27;20027;-45
2022/11/18 12:56:21;;;;;;;25.73;15.40;;;7.50;99.90;;;;;;5104105;27;20489;-45
2022/11/18 12:58:47;;;;;;;;;;;7.50;99.90;;;;;;5095272;28;20054;-46
2022/11/18 13:01:20;;;;;;;23.10;13.70;;;7.70;99.90;;;;;;5101617;27;19915;-46
2022/11/18 13:03:46;;;;;;;23.63;14.48;;;7.40;99.90;;;;;;5101203;27;20398;-44
2022/11/18 13:06:31;;;;;;;24.52;16.13;;;7.50;99.90;;;;;;5083230;28;20100;-45
2022/11/18 13:09:23;;;;;;;24.05;15.07;;;7.50;99.90;;;;;;5099608;27;20059;-44
2022/11/18 13:12:16;;;;;;;22.05;14.57;;;7.50;99.90;;;;;;5100909;28;20028;-44
2022/11/18 13:17:53;;;;;;;20.67;12.43;;;7.30;99.90;;;;;;5099508;28;20052;-44
2022/11/18 13:20:34;;;;;;;20.45;12.55;;;7.20;99.90;;;;;;5100726;28;20069;-44
2022/11/18 13:26:01;;;;;;;18.85;12.68;;;7.60;99.90;;;;;;5100893;28;20070;-45
2022/11/18 13:28:56;;;;;;;21.40;12.85;;;7.40;99.90;;;;;;5100559;28;20044;-45